Terminal Aerodrome Forecast
Issued by NWS

Home | Current Version | Previous Version | Graphics & Text | Print | Product List | Glossary On
Versions: 1 2 3 4 5 6 7 8 9 10 11 12 13 14 15 16 17
773
FTUS43 KICT 211134
TAFHUT
TAF
KHUT 211134Z 2112/2212 27006KT P6SM FEW250
     FM220100 22006KT P6SM SCT120
     FM220300 19004KT P6SM BKN110
     FM220700 21005KT P6SM SCT045 BKN100=

USA.gov is the U.S. government's official web portal to all federal, state and local government web resources and services.